TimeCAT,TemperatureF,Dew PointF,Humidity,Sea Level PressureIn,VisibilityMPH,Wind Direction,Wind SpeedMPH,Gust SpeedMPH,PrecipitationIn,Events,Conditions,WindDirDegrees,DateUTC
12:00 AM,75.2,53.6,47,29.92,-9999.0,SSW,11.5,-,N/A,,Clear,200,2013-04-19 22:00:00
1:00 AM,71.6,53.6,53,29.95,-9999.0,South,9.2,-,N/A,,Clear,190,2013-04-19 23:00:00
2:00 AM,-9999,-9999,,,6,South,13.8,,,,,190,2013-04-20 00:00:00
2:00 AM,66.2,50.0,56,29.95,-9999.0,South,13.8,-,N/A,,Clear,190,2013-04-20 00:00:00
3:00 AM,64.4,50.0,59,29.95,-9999.0,SSW,11.5,-,N/A,,Clear,200,2013-04-20 01:00:00
5:00 AM,62.6,51.8,68,29.98,-9999.0,South,15.0,-,N/A,,Clear,180,2013-04-20 03:00:00
6:00 AM,60.8,51.8,72,30.01,-9999.0,South,10.4,-,N/A,,Clear,170,2013-04-20 04:00:00
8:00 AM,63,54,66,,6,South,9.2,,,,Partly Cloudy,180,2013-04-20 06:00:00
8:00 AM,62.6,55.4,77,30.06,-9999.0,South,9.2,-,N/A,,Clear,180,2013-04-20 06:00:00
10:00 AM,71.6,57.2,60,30.09,-9999.0,SSW,5.8,-,N/A,,Clear,210,2013-04-20 08:00:00
11:00 AM,75.2,57.2,53,30.09,-9999.0,SSW,4.6,-,N/A,,Clear,210,2013-04-20 09:00:00
1:00 PM,84.2,51.8,33,30.04,-9999.0,SSE,6.9,-,N/A,,Clear,160,2013-04-20 11:00:00
2:00 PM,87,50,18,,6,SSW,5.8,,,,Partly Cloudy,210,2013-04-20 12:00:00
2:00 PM,86.0,50.0,29,30.01,-9999.0,SSW,5.8,-,N/A,,Clear,210,2013-04-20 12:00:00
3:00 PM,87.8,50.0,27,29.98,-9999.0,SW,11.5,-,N/A,,Clear,220,2013-04-20 13:00:00
4:00 PM,87.8,46.4,24,29.98,-9999.0,WSW,11.5,-,N/A,,Clear,240,2013-04-20 14:00:00
5:00 PM,87.8,44.6,22,30.01,-9999.0,WSW,11.5,-,N/A,,Clear,250,2013-04-20 15:00:00
6:00 PM,84.2,46.4,27,30.01,-9999.0,WSW,6.9,-,N/A,,Clear,240,2013-04-20 16:00:00
7:00 PM,78.8,51.8,39,30.04,-9999.0,WSW,4.6,-,N/A,,Clear,250,2013-04-20 17:00:00
8:00 PM,76,48,27,,6,East,2.3,,,,Partly Cloudy,90,2013-04-20 18:00:00
8:00 PM,75.2,48.2,38,30.06,-9999.0,Variable,2.3,-,N/A,,Clear,0,2013-04-20 18:00:00
10:00 PM,71.6,41.0,33,30.09,-9999.0,South,6.9,-,N/A,,Clear,170,2013-04-20 20:00:00
11:00 PM,69.8,39.2,33,30.09,-9999.0,SSE,6.9,-,N/A,,Clear,160,2013-04-20 21:00:00